createdAt,value
2022-11-14T00:00:47.942Z,7.40
2022-11-14T00:03:33.278Z,7.40
2022-11-14T00:06:19.749Z,7.40
2022-11-14T00:09:05.098Z,7.40
2022-11-14T00:11:50.684Z,7.30
2022-11-14T00:14:37.213Z,7.30
2022-11-14T00:17:22.969Z,7.30
2022-11-14T00:20:10.839Z,7.30
2022-11-14T00:22:56.899Z,7.30
2022-11-14T00:25:44.758Z,7.30
2022-11-14T00:28:30.755Z,7.30
2022-11-14T00:31:16.831Z,7.30
2022-11-14T00:34:02.439Z,7.30
2022-11-14T00:36:47.883Z,7.30
2022-11-14T00:39:33.621Z,7.20
2022-11-14T00:42:19.265Z,7.20
2022-11-14T00:45:05.219Z,7.20
2022-11-14T00:47:50.870Z,7.20
2022-11-14T00:50:38.014Z,7.20
2022-11-14T00:53:23.796Z,7.20
2022-11-14T00:56:09.477Z,7.20
2022-11-14T00:58:54.985Z,7.20
2022-11-14T01:01:40.799Z,7.10
2022-11-14T01:04:26.131Z,7.10
2022-11-14T01:07:11.508Z,7.10
2022-11-14T01:09:57.336Z,7.10
2022-11-14T01:12:42.993Z,7.10
2022-11-14T01:15:28.487Z,7.00
2022-11-14T01:18:17.623Z,7.00
2022-11-14T01:21:12.320Z,7.00
2022-11-14T01:23:58.104Z,6.90
2022-11-14T01:26:43.561Z,6.90
2022-11-14T01:29:29.442Z,6.90
2022-11-14T01:32:15.307Z,6.90
2022-11-14T01:35:00.744Z,6.90
2022-11-14T01:37:46.153Z,6.80
2022-11-14T01:40:34.161Z,6.80
2022-11-14T01:43:19.733Z,6.90
2022-11-14T01:46:33.922Z,6.80
2022-11-14T01:49:34.008Z,6.80
2022-11-14T01:52:30.506Z,6.80
2022-11-14T01:55:15.987Z,6.70
2022-11-14T01:58:01.888Z,6.70
2022-11-14T02:00:47.957Z,6.80
2022-11-14T02:03:38.398Z,6.80
2022-11-14T02:06:27.556Z,6.80
2022-11-14T02:09:13.925Z,6.80
2022-11-14T02:12:02.692Z,6.80
2022-11-14T02:14:52.162Z,6.70
2022-11-14T02:17:37.874Z,6.70
2022-11-14T02:20:29.253Z,6.70
2022-11-14T02:23:15.944Z,6.60
2022-11-14T02:26:01.590Z,6.60
2022-11-14T02:28:47.841Z,6.50
2022-11-14T02:31:34.438Z,6.50
2022-11-14T02:34:20.435Z,6.40
2022-11-14T02:37:06.929Z,6.40
2022-11-14T02:39:52.639Z,6.30
2022-11-14T02:42:38.062Z,6.30
2022-11-14T02:45:23.619Z,6.30
2022-11-14T02:48:09.015Z,6.30
2022-11-14T02:50:54.467Z,6.30
2022-11-14T02:53:40.135Z,6.30
2022-11-14T02:56:25.677Z,6.30
2022-11-14T02:59:11.178Z,6.30
2022-11-14T03:01:57.065Z,6.30
2022-11-14T03:04:42.870Z,6.30
2022-11-14T03:07:28.796Z,6.40
2022-11-14T03:10:14.543Z,6.40
2022-11-14T03:13:00.279Z,6.40
2022-11-14T03:15:46.571Z,6.40
2022-11-14T03:18:32.555Z,6.40
2022-11-14T03:21:20.478Z,6.40
2022-11-14T03:24:06.592Z,6.40
2022-11-14T03:26:52.062Z,6.40
2022-11-14T03:29:38.031Z,6.40
2022-11-14T03:32:23.497Z,6.40
2022-11-14T03:35:10.005Z,6.40
2022-11-14T03:37:56.824Z,6.40
2022-11-14T03:40:42.784Z,6.50
2022-11-14T03:43:32.517Z,6.50
2022-11-14T03:46:18.015Z,6.50
2022-11-14T03:49:04.118Z,6.50
2022-11-14T03:51:50.691Z,6.50
2022-11-14T03:54:36.320Z,6.50
2022-11-14T03:57:21.811Z,6.50
2022-11-14T04:00:08.305Z,6.50
2022-11-14T04:02:55.829Z,6.60
2022-11-14T04:05:45.377Z,6.60
2022-11-14T04:08:32.066Z,6.60
2022-11-14T04:11:18.464Z,6.70
2022-11-14T04:14:04.213Z,6.70
2022-11-14T04:16:49.781Z,6.80
2022-11-14T04:19:35.329Z,6.80
2022-11-14T04:22:20.884Z,6.90
2022-11-14T04:25:08.134Z,6.90
2022-11-14T04:27:53.526Z,7.00
2022-11-14T04:30:39.360Z,7.00
2022-11-14T04:33:25.186Z,7.10
2022-11-14T04:36:11.050Z,7.10
2022-11-14T04:38:57.063Z,7.10
2022-11-14T04:41:42.761Z,7.20
2022-11-14T04:44:28.376Z,7.20
2022-11-14T04:47:13.869Z,7.20
2022-11-14T04:49:59.646Z,7.30
2022-11-14T04:52:45.550Z,7.20
2022-11-14T04:55:31.442Z,7.30
2022-11-14T04:58:16.852Z,7.30
2022-11-14T05:01:11.196Z,7.30
2022-11-14T05:03:57.304Z,7.30
2022-11-14T05:06:42.855Z,7.40
2022-11-14T05:09:28.682Z,7.40
2022-11-14T05:12:14.210Z,7.40
2022-11-14T05:14:59.634Z,7.40
2022-11-14T05:17:45.048Z,7.40
2022-11-14T05:20:30.962Z,7.40
2022-11-14T05:23:23.235Z,7.40
2022-11-14T05:26:11.398Z,7.50
2022-11-14T05:28:57.241Z,7.50
2022-11-14T05:31:42.828Z,7.50
2022-11-14T05:34:28.544Z,7.50
2022-11-14T05:37:14.485Z,7.50
2022-11-14T05:39:59.940Z,7.40
2022-11-14T05:42:46.172Z,7.50
2022-11-14T05:45:32.842Z,7.50
2022-11-14T05:48:18.867Z,7.40
2022-11-14T05:51:06.396Z,7.40
2022-11-14T05:53:52.580Z,7.40
2022-11-14T05:56:38.241Z,7.50
2022-11-14T05:59:24.092Z,7.50
2022-11-14T06:02:10.003Z,7.60
2022-11-14T06:04:55.887Z,7.60
2022-11-14T06:07:41.590Z,7.60
2022-11-14T06:10:27.345Z,7.60
2022-11-14T06:13:15.967Z,7.60
2022-11-14T06:16:08.009Z,7.70
2022-11-14T06:18:54.165Z,7.70
2022-11-14T06:21:39.465Z,7.70
2022-11-14T06:24:25.212Z,7.70
2022-11-14T06:27:10.944Z,7.80
2022-11-14T06:29:56.522Z,7.80
2022-11-14T06:32:42.342Z,7.90
2022-11-14T06:35:27.991Z,7.90
2022-11-14T06:38:13.489Z,7.90
2022-11-14T06:41:10.881Z,7.90
2022-11-14T06:43:56.614Z,7.90
2022-11-14T06:46:41.949Z,7.90
2022-11-14T06:49:27.989Z,8.00
2022-11-14T06:52:13.630Z,8.00
2022-11-14T06:54:59.151Z,8.00
2022-11-14T06:57:44.580Z,8.00
2022-11-14T07:00:30.234Z,8.00
2022-11-14T07:03:16.072Z,8.10
2022-11-14T07:06:02.593Z,8.10
2022-11-14T07:08:48.204Z,8.10
2022-11-14T07:11:35.531Z,8.20
2022-11-14T07:14:21.070Z,8.10
2022-11-14T07:17:06.679Z,8.10
2022-11-14T07:19:52.472Z,8.20
2022-11-14T07:22:38.022Z,8.20
2022-11-14T07:25:23.798Z,8.30
2022-11-14T07:28:09.524Z,8.30
2022-11-14T07:30:55.540Z,8.40
2022-11-14T07:33:42.403Z,8.40
2022-11-14T07:36:27.856Z,8.40
2022-11-14T07:39:13.509Z,8.50
2022-11-14T07:41:58.861Z,8.50
2022-11-14T07:44:44.541Z,8.60
2022-11-14T07:47:30.062Z,8.60
2022-11-14T07:50:20.172Z,8.70
2022-11-14T07:53:05.782Z,8.80
2022-11-14T07:55:51.336Z,8.80
2022-11-14T07:58:41.422Z,8.90
2022-11-14T08:01:27.362Z,8.90
2022-11-14T08:04:12.790Z,9.00
2022-11-14T08:06:58.996Z,9.00
2022-11-14T08:09:44.383Z,9.00
2022-11-14T08:12:30.052Z,9.00
2022-11-14T08:15:15.525Z,9.10
2022-11-14T08:18:01.787Z,9.10
2022-11-14T08:20:47.549Z,9.10
2022-11-14T08:23:33.063Z,9.20
2022-11-14T08:26:18.829Z,9.20
2022-11-14T08:29:04.803Z,9.20
2022-11-14T08:31:50.440Z,9.20
2022-11-14T08:34:36.895Z,9.20
2022-11-14T08:37:22.333Z,9.30
2022-11-14T08:40:08.270Z,9.30
2022-11-14T08:43:00.093Z,9.30
2022-11-14T08:45:45.568Z,9.40
2022-11-14T08:48:32.321Z,9.50
2022-11-14T08:51:18.163Z,9.50
2022-11-14T08:54:04.265Z,9.50
2022-11-14T08:56:49.960Z,9.50
2022-11-14T08:59:35.740Z,9.60
2022-11-14T09:02:21.230Z,9.60
2022-11-14T09:05:07.499Z,9.50
2022-11-14T09:07:53.223Z,9.60
2022-11-14T09:10:38.879Z,9.60
2022-11-14T09:13:24.675Z,9.60
2022-11-14T09:16:10.249Z,9.70
2022-11-14T09:18:56.046Z,9.70
2022-11-14T09:21:41.527Z,9.70
2022-11-14T09:24:27.129Z,9.80
2022-11-14T09:27:12.820Z,9.80
2022-11-14T09:29:58.434Z,9.90
2022-11-14T09:32:44.650Z,10.00
2022-11-14T09:35:31.135Z,10.00
2022-11-14T09:38:16.709Z,10.10
2022-11-14T09:41:21.941Z,10.10
2022-11-14T09:44:20.843Z,10.10
2022-11-14T09:47:19.426Z,10.10
2022-11-14T09:50:15.908Z,10.20
2022-11-14T09:53:13.497Z,10.20
2022-11-14T09:55:59.340Z,10.20
2022-11-14T09:58:44.863Z,10.30
2022-11-14T10:01:52.116Z,10.30
2022-11-14T10:05:02.788Z,10.40
2022-11-14T10:07:54.667Z,10.40
2022-11-14T10:10:54.560Z,10.40
2022-11-14T10:14:14.177Z,10.40
2022-11-14T10:17:11.940Z,10.50
2022-11-14T10:20:09.428Z,10.50
2022-11-14T10:23:16.237Z,10.60
2022-11-14T10:26:07.569Z,10.60
2022-11-14T10:29:23.413Z,10.70
2022-11-14T10:32:15.236Z,10.70
2022-11-14T10:35:35.387Z,10.70
2022-11-14T10:38:56.412Z,10.70
2022-11-14T10:41:57.116Z,10.70
2022-11-14T10:45:08.043Z,10.70
2022-11-14T10:47:59.185Z,10.90
2022-11-14T10:50:59.378Z,11.00
2022-11-14T10:53:59.846Z,11.30
2022-11-14T10:56:50.324Z,11.60
2022-11-14T10:59:36.473Z,11.80
2022-11-14T11:02:21.667Z,12.10
2022-11-14T11:05:18.781Z,12.30
2022-11-14T11:08:43.176Z,12.60
2022-11-14T11:11:29.706Z,12.80
2022-11-14T11:14:19.672Z,13.00
2022-11-14T11:17:11.549Z,13.10
2022-11-14T11:20:25.323Z,13.10
2022-11-14T11:23:10.742Z,13.20
2022-11-14T11:26:07.852Z,13.30
2022-11-14T11:29:07.257Z,13.30
2022-11-14T11:31:54.308Z,13.30
2022-11-14T11:34:40.159Z,13.40
2022-11-14T11:40:22.384Z,13.60
2022-11-14T11:46:40.228Z,13.70
2022-11-14T11:49:53.871Z,13.80
2022-11-14T11:53:02.586Z,13.90
2022-11-14T11:55:54.401Z,13.90
2022-11-14T11:58:52.163Z,13.90
2022-11-14T12:01:42.597Z,13.90
2022-11-14T12:04:28.455Z,14.00
2022-11-14T12:07:25.482Z,13.90
2022-11-14T12:10:22.929Z,13.90
2022-11-14T12:13:33.600Z,13.90
2022-11-14T12:16:45.437Z,13.90
2022-11-14T12:20:00.080Z,14.00
2022-11-14T12:22:56.100Z,14.00
2022-11-14T12:25:41.540Z,14.00
2022-11-14T12:28:45.628Z,14.00
2022-11-14T12:31:37.678Z,14.00
2022-11-14T12:34:38.669Z,14.10
2022-11-14T12:37:32.825Z,14.10
2022-11-14T12:40:28.980Z,14.00
2022-11-14T12:43:38.523Z,14.00
2022-11-14T12:46:25.419Z,14.10
2022-11-14T12:49:48.393Z,14.10
2022-11-14T12:52:54.307Z,14.10
2022-11-14T12:55:46.004Z,14.10
2022-11-14T12:58:54.217Z,14.10
2022-11-14T13:01:51.961Z,14.20
2022-11-14T13:05:10.980Z,14.10
2022-11-14T13:08:18.036Z,14.10
2022-11-14T13:11:52.080Z,14.10
2022-11-14T13:15:09.457Z,14.10
2022-11-14T13:18:34.425Z,14.20
2022-11-14T13:21:45.389Z,14.20
2022-11-14T13:24:59.542Z,14.20
2022-11-14T13:28:06.560Z,14.20
2022-11-14T13:31:33.605Z,14.30
2022-11-14T13:34:28.349Z,14.30
2022-11-14T13:37:46.020Z,14.40
2022-11-14T13:40:59.869Z,14.60
2022-11-14T13:44:39.813Z,14.80
2022-11-14T13:47:54.455Z,15.00
2022-11-14T13:50:40.851Z,15.10
2022-11-14T13:53:31.893Z,15.20
2022-11-14T13:56:34.387Z,15.30
2022-11-14T13:59:38.039Z,15.30
2022-11-14T14:02:42.029Z,15.30
2022-11-14T14:05:53.423Z,15.30
2022-11-14T14:08:38.824Z,15.20
2022-11-14T14:11:53.395Z,15.20
2022-11-14T14:14:41.726Z,15.10
2022-11-14T14:17:42.317Z,15.00
2022-11-14T14:20:48.106Z,14.80
2022-11-14T14:23:49.883Z,14.70
2022-11-14T14:26:56.826Z,14.70
2022-11-14T14:29:48.853Z,14.60
2022-11-14T14:32:34.327Z,14.50
2022-11-14T14:35:29.763Z,14.30
2022-11-14T14:38:25.080Z,14.10
2022-11-14T14:41:14.234Z,13.90
2022-11-14T14:44:00.169Z,13.80
2022-11-14T14:46:45.555Z,13.60
2022-11-14T14:49:36.729Z,13.50
2022-11-14T14:52:37.879Z,13.30
2022-11-14T14:55:27.307Z,13.20
2022-11-14T14:58:34.907Z,13.10
2022-11-14T15:01:32.726Z,13.10
2022-11-14T15:04:20.629Z,13.10
2022-11-14T15:07:15.932Z,13.20
2022-11-14T15:10:03.194Z,13.20
2022-11-14T15:12:49.665Z,13.20
2022-11-14T15:15:35.330Z,13.20
2022-11-14T15:18:26.337Z,13.20
2022-11-14T15:21:20.617Z,13.30
2022-11-14T15:24:21.931Z,13.40
2022-11-14T15:27:17.840Z,13.40
2022-11-14T15:30:07.475Z,13.50
2022-11-14T15:32:55.328Z,13.60
2022-11-14T15:35:41.721Z,13.80
2022-11-14T15:38:44.425Z,13.80
2022-11-14T15:41:32.109Z,13.90
2022-11-14T15:44:34.613Z,14.00
2022-11-14T15:47:25.964Z,14.10
2022-11-14T15:50:11.852Z,14.20
2022-11-14T15:53:02.072Z,14.20
2022-11-14T15:55:47.722Z,14.30
2022-11-14T15:58:33.661Z,14.30
2022-11-14T16:01:24.182Z,14.40
2022-11-14T16:04:17.161Z,14.50
2022-11-14T16:07:03.278Z,14.50
2022-11-14T16:09:49.098Z,14.50
2022-11-14T16:12:34.486Z,14.50
2022-11-14T16:15:21.300Z,14.60
2022-11-14T16:18:06.952Z,14.60
2022-11-14T16:20:52.409Z,14.60
2022-11-14T16:23:39.444Z,14.60
2022-11-14T16:26:26.375Z,14.70
2022-11-14T16:29:12.109Z,14.70
2022-11-14T16:31:57.749Z,14.70
2022-11-14T16:34:43.580Z,14.70
2022-11-14T16:37:28.850Z,14.80
2022-11-14T16:40:22.970Z,14.90
2022-11-14T16:43:14.050Z,14.90
2022-11-14T16:46:04.627Z,15.00
2022-11-14T16:48:50.181Z,15.10
2022-11-14T16:51:51.409Z,15.10
2022-11-14T16:54:37.033Z,15.20
2022-11-14T16:57:23.535Z,15.20
2022-11-14T17:00:12.527Z,15.20
2022-11-14T17:02:58.481Z,15.20
2022-11-14T17:05:46.571Z,15.20
2022-11-14T17:08:31.908Z,15.30
2022-11-14T17:11:18.049Z,15.30
2022-11-14T17:14:03.646Z,15.30
2022-11-14T17:16:49.035Z,15.30
2022-11-14T17:19:34.755Z,15.30
2022-11-14T17:22:20.263Z,15.40
2022-11-14T17:25:06.637Z,15.40
2022-11-14T17:27:52.482Z,15.40
2022-11-14T17:30:44.166Z,15.30
2022-11-14T17:33:29.870Z,15.20
2022-11-14T17:36:15.380Z,15.10
2022-11-14T17:39:01.440Z,15.10
2022-11-14T17:41:46.765Z,15.10
2022-11-14T17:44:32.531Z,15.20
2022-11-14T17:47:18.395Z,15.20
2022-11-14T17:50:04.460Z,15.20
2022-11-14T17:52:50.248Z,15.20
2022-11-14T17:55:35.584Z,15.20
2022-11-14T17:58:22.526Z,15.30
2022-11-14T18:01:13.056Z,15.30
2022-11-14T18:04:04.510Z,15.30
2022-11-14T18:06:51.899Z,15.30
2022-11-14T18:09:37.441Z,15.40
2022-11-14T18:12:22.945Z,15.40
2022-11-14T18:15:08.889Z,15.40
2022-11-14T18:17:54.746Z,15.40
2022-11-14T18:20:40.440Z,15.40
2022-11-14T18:23:25.839Z,15.40
2022-11-14T18:26:12.960Z,15.50
2022-11-14T18:29:01.084Z,15.40
2022-11-14T18:31:48.204Z,15.40
2022-11-14T18:34:37.773Z,15.40
2022-11-14T18:37:23.463Z,15.50
2022-11-14T18:40:16.282Z,15.50
2022-11-14T18:43:02.322Z,15.50
2022-11-14T18:45:47.985Z,15.50
2022-11-14T18:48:33.803Z,15.40
2022-11-14T18:51:22.053Z,15.50
2022-11-14T18:54:16.353Z,15.40
2022-11-14T18:57:01.746Z,15.50
2022-11-14T18:59:47.064Z,15.50
2022-11-14T19:02:32.963Z,15.50
2022-11-14T19:05:18.368Z,15.50
2022-11-14T19:08:05.349Z,15.50
2022-11-14T19:10:51.022Z,15.50
2022-11-14T19:13:36.949Z,15.50
2022-11-14T19:16:23.011Z,15.50
2022-11-14T19:19:17.106Z,15.40
2022-11-14T19:22:19.380Z,15.40
2022-11-14T19:25:15.975Z,15.30
2022-11-14T19:28:05.648Z,15.30
2022-11-14T19:31:10.772Z,15.30
2022-11-14T19:34:11.685Z,15.30
2022-11-14T19:37:08.944Z,15.30
2022-11-14T19:40:05.428Z,15.20
2022-11-14T19:43:22.154Z,15.10
2022-11-14T19:46:22.990Z,15.10
2022-11-14T19:49:18.443Z,15.00
2022-11-14T19:52:27.219Z,14.90
2022-11-14T19:55:36.300Z,14.80
2022-11-14T19:58:40.725Z,14.80
2022-11-14T20:01:38.970Z,14.70
2022-11-14T20:04:38.047Z,14.70
2022-11-14T20:07:28.296Z,14.70
2022-11-14T20:10:24.780Z,14.60
2022-11-14T20:13:20.970Z,14.50
2022-11-14T20:16:30.190Z,14.40
2022-11-14T20:19:21.975Z,14.40
2022-11-14T20:22:12.690Z,14.40
2022-11-14T20:24:58.225Z,14.40
2022-11-14T20:27:43.808Z,14.30
2022-11-14T20:30:29.508Z,14.40
2022-11-14T20:33:14.830Z,14.40
2022-11-14T20:36:12.386Z,14.40
2022-11-14T20:38:58.627Z,14.40
2022-11-14T20:41:44.078Z,14.40
2022-11-14T20:44:29.747Z,14.50
2022-11-14T20:47:17.385Z,14.50
2022-11-14T20:50:03.604Z,14.50
2022-11-14T20:52:49.353Z,14.50
2022-11-14T20:55:34.605Z,14.60
2022-11-14T20:58:21.187Z,14.60
2022-11-14T21:01:07.310Z,14.60
2022-11-14T21:03:52.735Z,14.60
2022-11-14T21:06:38.114Z,14.60
2022-11-14T21:09:23.689Z,14.60
2022-11-14T21:12:09.257Z,14.60
2022-11-14T21:14:55.017Z,14.70
2022-11-14T21:17:40.536Z,14.70
2022-11-14T21:20:26.181Z,14.80
2022-11-14T21:23:11.743Z,14.80
2022-11-14T21:26:15.200Z,14.80
2022-11-14T21:29:01.866Z,14.80
2022-11-14T21:31:50.144Z,14.80
2022-11-14T21:34:35.521Z,14.70
2022-11-14T21:37:21.128Z,14.70
2022-11-14T21:40:07.417Z,14.70
2022-11-14T21:42:53.074Z,14.70
2022-11-14T21:45:38.838Z,14.70
2022-11-14T21:48:24.720Z,14.70
2022-11-14T21:51:20.751Z,14.70
2022-11-14T21:54:06.830Z,14.70
2022-11-14T21:56:52.367Z,14.70
2022-11-14T21:59:37.844Z,14.60
2022-11-14T22:02:42.030Z,14.60
2022-11-14T22:05:27.399Z,14.50
2022-11-14T22:08:12.944Z,14.50
2022-11-14T22:11:02.312Z,14.50
2022-11-14T22:13:48.281Z,14.40
2022-11-14T22:16:34.267Z,14.40
2022-11-14T22:19:20.078Z,14.40
2022-11-14T22:22:05.477Z,14.30
2022-11-14T22:24:51.112Z,14.30
2022-11-14T22:27:36.677Z,14.20
2022-11-14T22:30:22.329Z,14.20
2022-11-14T22:33:08.130Z,14.20
2022-11-14T22:35:53.973Z,14.10
2022-11-14T22:38:40.549Z,14.20
2022-11-14T22:41:32.287Z,14.20
2022-11-14T22:44:18.572Z,14.10
2022-11-14T22:47:04.136Z,14.00
2022-11-14T22:49:49.811Z,14.00
2022-11-14T22:52:35.504Z,14.00
2022-11-14T22:55:21.039Z,14.00
2022-11-14T22:58:06.701Z,14.00
2022-11-14T23:00:53.220Z,14.00
2022-11-14T23:03:39.998Z,14.00
2022-11-14T23:06:26.282Z,14.00
2022-11-14T23:09:12.250Z,14.00
2022-11-14T23:11:57.628Z,14.00
2022-11-14T23:14:43.564Z,14.00
2022-11-14T23:17:28.946Z,14.10
2022-11-14T23:20:16.710Z,14.10
2022-11-14T23:23:03.416Z,14.10
2022-11-14T23:25:49.205Z,14.10
2022-11-14T23:28:35.094Z,14.10
2022-11-14T23:31:21.301Z,14.10
2022-11-14T23:34:07.028Z,14.20
2022-11-14T23:36:52.718Z,14.10
2022-11-14T23:39:38.053Z,14.20
2022-11-14T23:42:23.823Z,14.20
2022-11-14T23:45:09.677Z,14.20
2022-11-14T23:47:54.942Z,14.20
2022-11-14T23:50:40.701Z,14.20
2022-11-14T23:53:25.965Z,14.20
2022-11-14T23:56:13.425Z,14.20
2022-11-14T23:58:59.006Z,14.20
